createdAt,value
2023-01-25T00:01:36.278Z,15.23
2023-01-25T00:04:03.882Z,14.27
2023-01-25T00:06:31.476Z,14.47
2023-01-25T00:08:58.921Z,14.93
2023-01-25T00:11:26.315Z,14.10
2023-01-25T00:13:55.166Z,14.50
2023-01-25T00:16:24.089Z,16.00
2023-01-25T00:18:51.620Z,15.50
2023-01-25T00:21:23.309Z,14.60
2023-01-25T00:23:51.558Z,15.47
2023-01-25T00:26:20.185Z,15.57
2023-01-25T00:28:55.113Z,15.13
2023-01-25T00:32:22.958Z,14.93
2023-01-25T00:34:52.265Z,14.40
2023-01-25T00:37:29.064Z,15.97
2023-01-25T00:39:58.361Z,15.07
2023-01-25T00:42:25.902Z,15.57
2023-01-25T00:44:53.184Z,16.40
2023-01-25T00:47:21.304Z,15.60
2023-01-25T00:49:48.915Z,15.60
2023-01-25T00:52:16.484Z,16.50
2023-01-25T00:54:44.283Z,16.13
2023-01-25T00:57:11.686Z,14.80
2023-01-25T00:59:39.342Z,15.87
2023-01-25T01:02:06.866Z,15.33
2023-01-25T01:04:34.462Z,14.30
2023-01-25T01:07:02.651Z,16.03
2023-01-25T01:09:30.133Z,16.50
2023-01-25T01:11:58.683Z,16.67
2023-01-25T01:14:26.301Z,17.07
2023-01-25T01:16:54.044Z,16.27
2023-01-25T01:19:22.248Z,16.70
2023-01-25T01:21:49.789Z,16.77
2023-01-25T01:24:18.139Z,17.13
2023-01-25T01:26:45.628Z,16.97
2023-01-25T01:29:13.539Z,16.90
2023-01-25T01:31:41.528Z,15.47
2023-01-25T01:34:22.942Z,15.93
2023-01-25T01:36:51.016Z,15.27
2023-01-25T01:39:18.725Z,17.97
2023-01-25T01:41:46.264Z,16.20
2023-01-25T01:44:51.130Z,17.07
2023-01-25T01:47:32.174Z,16.03
2023-01-25T01:50:17.604Z,15.80
2023-01-25T01:52:45.304Z,16.73
2023-01-25T01:55:22.104Z,15.93
2023-01-25T01:57:58.247Z,15.57
2023-01-25T02:00:29.536Z,14.53
2023-01-25T02:02:59.186Z,14.43
2023-01-25T02:05:40.787Z,16.40
2023-01-25T02:08:11.298Z,14.47
2023-01-25T02:10:39.714Z,15.03
2023-01-25T02:13:07.251Z,14.50
2023-01-25T02:18:32.091Z,15.60
2023-01-25T02:21:01.798Z,17.70
2023-01-25T02:23:53.279Z,15.27
2023-01-25T02:26:22.689Z,15.97
2023-01-25T02:29:07.311Z,15.30
2023-01-25T02:31:35.336Z,15.73
2023-01-25T02:34:02.814Z,15.17
2023-01-25T02:36:33.759Z,17.03
2023-01-25T02:39:09.467Z,17.23
2023-01-25T02:41:44.196Z,17.47
2023-01-25T02:44:17.015Z,17.70
2023-01-25T02:46:45.295Z,18.07
2023-01-25T02:49:14.138Z,17.97
2023-01-25T02:51:47.604Z,17.60
2023-01-25T02:54:18.181Z,17.00
2023-01-25T02:56:45.666Z,18.47
2023-01-25T02:59:13.665Z,17.50
2023-01-25T03:01:45.868Z,18.90
2023-01-25T03:04:14.022Z,17.80
2023-01-25T03:06:42.553Z,15.47
2023-01-25T03:09:11.594Z,17.13
2023-01-25T03:11:42.999Z,16.97
2023-01-25T03:14:11.272Z,15.20
2023-01-25T03:16:39.730Z,16.33
2023-01-25T03:19:07.433Z,17.03
2023-01-25T03:21:35.108Z,17.57
2023-01-25T03:24:03.112Z,17.70
2023-01-25T03:26:56.949Z,17.50
2023-01-25T03:29:33.672Z,17.83
2023-01-25T03:32:02.243Z,14.63
2023-01-25T03:34:30.049Z,15.53
2023-01-25T03:36:59.113Z,16.63
2023-01-25T03:39:26.539Z,17.20
2023-01-25T03:41:54.028Z,15.87
2023-01-25T03:44:21.483Z,16.73
2023-01-25T03:46:49.021Z,15.60
2023-01-25T03:49:16.602Z,16.63
2023-01-25T03:51:44.411Z,17.47
2023-01-25T03:54:13.299Z,15.63
2023-01-25T03:56:41.063Z,16.37
2023-01-25T03:59:26.028Z,15.53
2023-01-25T04:01:55.921Z,16.00
2023-01-25T04:04:23.676Z,15.90
2023-01-25T04:06:51.782Z,16.37
2023-01-25T04:09:20.941Z,17.53
2023-01-25T04:11:52.197Z,15.03
2023-01-25T04:14:31.827Z,18.43
2023-01-25T04:17:08.459Z,18.13
2023-01-25T04:19:35.767Z,16.47
2023-01-25T04:22:05.103Z,17.10
2023-01-25T04:24:36.546Z,16.77
2023-01-25T04:27:05.467Z,15.13
2023-01-25T04:29:41.554Z,14.60
2023-01-25T04:32:14.158Z,15.60
2023-01-25T04:34:41.819Z,15.37
2023-01-25T04:37:14.612Z,15.67
2023-01-25T04:39:52.472Z,17.93
2023-01-25T04:42:20.980Z,14.60
2023-01-25T04:44:52.513Z,17.47
2023-01-25T04:47:20.484Z,14.90
2023-01-25T04:49:47.973Z,13.90
2023-01-25T04:52:18.508Z,14.50
2023-01-25T04:54:49.609Z,14.30
2023-01-25T04:57:18.003Z,16.50
2023-01-25T04:59:50.402Z,14.70
2023-01-25T05:02:18.386Z,14.10
2023-01-25T05:04:46.422Z,15.50
2023-01-25T05:07:14.457Z,14.43
2023-01-25T05:09:42.668Z,16.60
2023-01-25T05:12:13.766Z,16.50
2023-01-25T05:14:57.219Z,16.33
2023-01-25T05:17:25.138Z,14.47
2023-01-25T05:19:52.485Z,15.20
2023-01-25T05:22:23.333Z,17.10
2023-01-25T05:24:53.760Z,17.53
2023-01-25T05:27:22.528Z,15.57
2023-01-25T05:29:57.192Z,14.70
2023-01-25T05:32:37.021Z,15.37
2023-01-25T05:35:04.996Z,14.83
2023-01-25T05:37:32.506Z,14.30
2023-01-25T05:40:05.493Z,15.07
2023-01-25T05:42:37.160Z,15.67
2023-01-25T05:45:09.434Z,16.10
2023-01-25T05:47:39.364Z,14.60
2023-01-25T05:50:09.454Z,14.53
2023-01-25T05:52:54.526Z,15.20
2023-01-25T05:55:22.081Z,13.87
2023-01-25T05:57:55.912Z,15.10
2023-01-25T06:00:24.073Z,14.90
2023-01-25T06:02:51.467Z,16.03
2023-01-25T06:05:23.226Z,14.30
2023-01-25T06:07:50.636Z,15.87
2023-01-25T06:10:19.597Z,17.60
2023-01-25T06:12:50.129Z,16.90
2023-01-25T06:15:17.827Z,15.87
2023-01-25T06:17:45.670Z,16.20
2023-01-25T06:20:28.873Z,14.73
2023-01-25T06:23:05.509Z,13.53
2023-01-25T06:25:32.953Z,14.03
2023-01-25T06:28:00.350Z,14.80
2023-01-25T06:30:27.695Z,13.63
2023-01-25T06:32:58.259Z,14.80
2023-01-25T06:35:25.964Z,13.77
2023-01-25T06:37:56.881Z,14.67
2023-01-25T06:40:25.021Z,20.17
2023-01-25T06:42:52.387Z,14.33
2023-01-25T06:45:19.846Z,14.37
2023-01-25T06:47:49.839Z,15.30
2023-01-25T06:50:17.313Z,16.50
2023-01-25T06:52:55.285Z,15.27
2023-01-25T06:55:23.247Z,15.73
2023-01-25T06:57:50.700Z,14.80
2023-01-25T07:00:19.012Z,14.73
2023-01-25T07:02:46.457Z,14.70
2023-01-25T07:05:14.072Z,15.03
2023-01-25T07:07:46.415Z,15.20
2023-01-25T07:10:13.907Z,14.10
2023-01-25T07:12:41.423Z,14.00
2023-01-25T07:15:09.918Z,12.60
2023-01-25T07:17:37.791Z,13.87
2023-01-25T07:20:06.011Z,13.73
2023-01-25T07:22:34.760Z,15.00
2023-01-25T07:25:02.566Z,13.43
2023-01-25T07:27:34.143Z,14.07
2023-01-25T07:30:02.021Z,15.07
2023-01-25T07:32:29.435Z,15.40
2023-01-25T07:34:56.926Z,14.50
2023-01-25T07:37:25.259Z,14.90
2023-01-25T07:39:53.249Z,13.17
2023-01-25T07:42:20.992Z,14.37
2023-01-25T07:44:54.267Z,14.17
2023-01-25T07:47:21.833Z,14.80
2023-01-25T07:49:49.135Z,15.67
2023-01-25T07:52:16.564Z,16.53
2023-01-25T07:54:44.110Z,14.27
2023-01-25T07:57:11.515Z,15.53
2023-01-25T07:59:39.122Z,15.53
2023-01-25T08:02:10.018Z,14.60
2023-01-25T08:04:37.379Z,14.80
2023-01-25T08:07:04.923Z,13.83
2023-01-25T08:09:32.362Z,12.47
2023-01-25T08:12:00.140Z,14.40
2023-01-25T08:14:27.963Z,15.23
2023-01-25T08:16:55.292Z,12.93
2023-01-25T08:19:22.846Z,12.50
2023-01-25T08:21:50.367Z,12.57
2023-01-25T08:24:20.723Z,11.83
2023-01-25T08:26:48.261Z,14.23
2023-01-25T08:29:15.644Z,13.20
2023-01-25T08:31:45.735Z,12.90
2023-01-25T08:34:15.073Z,13.00
2023-01-25T08:36:42.587Z,12.67
2023-01-25T08:39:13.104Z,13.23
2023-01-25T08:41:42.248Z,13.60
2023-01-25T08:44:09.960Z,13.10
2023-01-25T08:46:37.315Z,13.00
2023-01-25T08:49:05.216Z,12.73
2023-01-25T08:51:33.722Z,13.73
2023-01-25T08:54:10.337Z,13.60
2023-01-25T08:56:42.133Z,14.13
2023-01-25T08:59:14.087Z,12.27
2023-01-25T09:01:41.760Z,12.37
2023-01-25T09:04:09.488Z,14.23
2023-01-25T09:06:37.085Z,14.23
2023-01-25T09:09:04.899Z,14.40
2023-01-25T09:11:34.986Z,11.83
2023-01-25T09:14:02.872Z,13.67
2023-01-25T09:16:30.780Z,13.87
2023-01-25T09:19:05.036Z,14.47
2023-01-25T09:21:33.681Z,12.90
2023-01-25T09:24:08.795Z,13.50
2023-01-25T09:26:40.206Z,12.93
2023-01-25T09:29:10.912Z,12.57
2023-01-25T09:31:46.250Z,13.50
2023-01-25T09:34:22.488Z,12.77
2023-01-25T09:36:49.921Z,13.63
2023-01-25T09:39:17.248Z,13.17
2023-01-25T09:42:22.427Z,13.80
2023-01-25T09:45:11.455Z,14.70
2023-01-25T09:47:38.876Z,13.67
2023-01-25T09:50:33.228Z,12.07
2023-01-25T09:53:16.510Z,13.07
2023-01-25T09:55:44.980Z,13.80
2023-01-25T09:58:21.458Z,14.83
2023-01-25T10:00:57.938Z,12.93
2023-01-25T10:03:33.823Z,13.37
2023-01-25T10:06:02.869Z,13.40
2023-01-25T10:09:26.673Z,12.67
2023-01-25T10:11:54.221Z,11.63
2023-01-25T10:14:22.287Z,13.73
2023-01-25T10:16:51.463Z,13.03
2023-01-25T10:19:37.173Z,14.27
2023-01-25T10:22:37.585Z,14.70
2023-01-25T10:25:26.192Z,14.60
2023-01-25T10:28:21.083Z,14.23
2023-01-25T10:31:06.437Z,14.37
2023-01-25T10:33:40.356Z,12.87
2023-01-25T10:36:14.452Z,14.40
2023-01-25T10:38:46.214Z,15.00
2023-01-25T10:41:28.485Z,13.67
2023-01-25T10:44:14.834Z,14.07
2023-01-25T10:47:00.757Z,13.20
2023-01-25T10:49:40.438Z,14.23
2023-01-25T10:52:24.099Z,13.37
2023-01-25T10:55:23.466Z,14.63
2023-01-25T10:57:59.158Z,13.97
2023-01-25T11:00:43.289Z,13.57
2023-01-25T11:03:47.000Z,14.37
2023-01-25T11:06:14.457Z,13.50
2023-01-25T11:08:43.344Z,14.60
2023-01-25T11:11:32.898Z,14.27
2023-01-25T11:14:01.173Z,13.40
2023-01-25T11:16:39.241Z,13.57
2023-01-25T11:19:39.685Z,13.20
2023-01-25T11:22:28.823Z,14.63
2023-01-25T11:24:56.503Z,14.17
2023-01-25T11:27:28.201Z,15.47
2023-01-25T11:30:22.205Z,15.33
2023-01-25T11:32:49.811Z,14.93
2023-01-25T11:35:27.688Z,16.23
2023-01-25T11:38:15.652Z,15.13
2023-01-25T11:41:09.170Z,16.10
2023-01-25T11:44:39.720Z,16.83
2023-01-25T11:47:41.982Z,15.63
2023-01-25T11:51:20.357Z,16.57
2023-01-25T11:54:09.252Z,15.43
2023-01-25T11:57:03.250Z,15.70
2023-01-25T12:00:15.218Z,16.10
2023-01-25T12:03:21.099Z,16.67
2023-01-25T12:06:24.920Z,16.20
2023-01-25T12:09:12.024Z,14.97
2023-01-25T12:12:51.539Z,14.67
2023-01-25T12:15:19.001Z,15.17
2023-01-25T12:18:25.497Z,14.73
2023-01-25T12:21:07.843Z,17.17
2023-01-25T12:24:37.709Z,15.80
2023-01-25T12:27:51.698Z,15.57
2023-01-25T12:30:39.874Z,16.30
2023-01-25T12:33:34.055Z,15.90
2023-01-25T12:36:19.288Z,16.10
2023-01-25T12:39:10.775Z,16.47
2023-01-25T12:42:17.555Z,15.13
2023-01-25T12:44:55.008Z,16.13
2023-01-25T12:48:01.226Z,15.63
2023-01-25T12:50:45.876Z,15.23
2023-01-25T12:53:48.249Z,15.17
2023-01-25T12:56:43.907Z,15.37
2023-01-25T12:59:55.212Z,15.43
2023-01-25T13:02:51.908Z,16.07
2023-01-25T13:05:48.547Z,14.87
2023-01-25T13:08:48.700Z,15.70
2023-01-25T13:11:47.237Z,14.47
2023-01-25T13:14:17.723Z,15.73
2023-01-25T13:17:08.462Z,14.80
2023-01-25T13:19:43.075Z,14.43
2023-01-25T13:22:13.098Z,14.57
2023-01-25T13:25:10.736Z,13.67
2023-01-25T13:27:38.123Z,14.20
2023-01-25T13:30:34.408Z,14.47
2023-01-25T13:33:06.843Z,14.40
2023-01-25T13:35:42.012Z,13.13
2023-01-25T13:38:09.040Z,14.53
2023-01-25T13:40:40.215Z,13.50
2023-01-25T13:43:17.814Z,14.57
2023-01-25T13:45:48.898Z,14.57
2023-01-25T13:48:23.668Z,14.50
2023-01-25T13:50:55.978Z,13.40
2023-01-25T13:53:26.672Z,13.97
2023-01-25T13:55:57.449Z,12.60
2023-01-25T13:58:27.456Z,15.00
2023-01-25T14:01:17.739Z,13.33
2023-01-25T14:03:49.638Z,13.63
2023-01-25T14:06:24.710Z,14.27
2023-01-25T14:08:55.613Z,14.00
2023-01-25T14:11:27.043Z,13.07
2023-01-25T14:14:18.386Z,14.37
2023-01-25T14:16:45.732Z,12.40
2023-01-25T14:19:29.829Z,13.03
2023-01-25T14:22:27.034Z,12.33
2023-01-25T14:25:19.199Z,14.30
2023-01-25T14:27:55.116Z,13.80
2023-01-25T14:30:25.697Z,13.03
2023-01-25T14:33:02.687Z,13.03
2023-01-25T14:35:54.610Z,12.43
2023-01-25T14:38:35.967Z,14.20
2023-01-25T14:41:20.716Z,14.30
2023-01-25T14:43:51.424Z,13.60
2023-01-25T14:46:20.656Z,14.53
2023-01-25T14:48:48.220Z,14.20
2023-01-25T14:51:44.215Z,13.87
2023-01-25T14:54:18.989Z,13.97
2023-01-25T14:56:56.682Z,14.33
2023-01-25T14:59:33.146Z,13.57
2023-01-25T15:02:19.584Z,14.63
2023-01-25T15:05:14.764Z,12.97
2023-01-25T15:07:50.068Z,15.23
2023-01-25T15:10:25.443Z,14.97
2023-01-25T15:13:14.587Z,13.17
2023-01-25T15:16:00.006Z,14.00
2023-01-25T15:18:53.040Z,13.40
2023-01-25T15:21:30.041Z,11.57
2023-01-25T15:24:04.543Z,13.20
2023-01-25T15:26:34.063Z,13.23
2023-01-25T15:29:20.072Z,11.93
2023-01-25T15:31:49.506Z,12.80
2023-01-25T15:34:22.118Z,13.10
2023-01-25T15:36:49.776Z,14.00
2023-01-25T15:39:20.352Z,11.87
2023-01-25T15:41:48.566Z,12.70
2023-01-25T15:44:17.432Z,12.30
2023-01-25T15:46:49.150Z,12.80
2023-01-25T15:49:26.970Z,11.70
2023-01-25T15:51:55.329Z,13.17
2023-01-25T15:54:22.780Z,13.30
2023-01-25T15:56:55.664Z,13.17
2023-01-25T15:59:23.071Z,12.50
2023-01-25T16:01:50.525Z,13.00
2023-01-25T16:04:17.858Z,12.40
2023-01-25T16:06:50.627Z,13.80
2023-01-25T16:09:26.810Z,12.30
2023-01-25T16:11:57.538Z,12.67
2023-01-25T16:14:30.253Z,11.93
2023-01-25T16:17:04.060Z,11.80
2023-01-25T16:19:32.356Z,12.27
2023-01-25T16:21:59.856Z,12.00
2023-01-25T16:24:27.176Z,12.10
2023-01-25T16:26:57.778Z,12.60
2023-01-25T16:29:25.957Z,13.57
2023-01-25T16:31:54.351Z,12.83
2023-01-25T16:34:22.373Z,11.23
2023-01-25T16:36:53.296Z,11.80
2023-01-25T16:39:27.918Z,12.43
2023-01-25T16:41:56.027Z,13.20
2023-01-25T16:44:23.117Z,12.10
2023-01-25T16:46:50.584Z,12.43
2023-01-25T16:49:23.265Z,11.47
2023-01-25T16:51:50.790Z,13.30
2023-01-25T16:54:19.963Z,12.13
2023-01-25T16:56:48.765Z,11.80
2023-01-25T16:59:18.015Z,13.00
2023-01-25T17:01:45.955Z,12.53
2023-01-25T17:04:13.203Z,13.20
2023-01-25T17:06:44.099Z,11.03
2023-01-25T17:09:23.375Z,13.80
2023-01-25T17:11:53.063Z,12.37
2023-01-25T17:14:21.119Z,11.93
2023-01-25T17:16:51.309Z,12.57
2023-01-25T17:19:19.986Z,11.47
2023-01-25T17:21:47.115Z,11.30
2023-01-25T17:24:19.021Z,12.37
2023-01-25T17:26:46.320Z,11.80
2023-01-25T17:29:13.875Z,11.97
2023-01-25T17:31:42.104Z,12.33
2023-01-25T17:34:13.656Z,12.23
2023-01-25T17:36:40.878Z,12.07
2023-01-25T17:39:08.411Z,11.37
2023-01-25T17:41:35.537Z,11.13
2023-01-25T17:44:03.316Z,11.27
2023-01-25T17:46:34.537Z,11.40
2023-01-25T17:49:04.570Z,11.33
2023-01-25T17:51:33.460Z,12.30
2023-01-25T17:54:01.172Z,11.97
2023-01-25T17:56:28.333Z,12.50
2023-01-25T17:58:55.788Z,11.03
2023-01-25T18:01:25.966Z,11.33
2023-01-25T18:03:54.428Z,11.67
2023-01-25T18:06:26.185Z,11.03
2023-01-25T18:08:57.089Z,10.83
2023-01-25T18:11:27.233Z,11.70
2023-01-25T18:13:58.255Z,12.83
2023-01-25T18:16:29.350Z,11.90
2023-01-25T18:18:59.184Z,22.40
2023-01-25T18:21:29.855Z,12.83
2023-01-25T18:24:08.004Z,12.10
2023-01-25T18:26:37.133Z,12.77
2023-01-25T18:29:10.185Z,13.40
2023-01-25T18:31:37.413Z,11.97
2023-01-25T18:34:05.079Z,11.80
2023-01-25T18:36:32.270Z,12.93
2023-01-25T18:39:00.315Z,13.53
2023-01-25T18:41:27.539Z,12.17
2023-01-25T18:43:56.642Z,13.17
2023-01-25T18:46:23.972Z,13.90
2023-01-25T18:48:51.263Z,13.37
2023-01-25T18:51:18.681Z,12.73
2023-01-25T18:53:49.213Z,12.53
2023-01-25T18:56:21.462Z,13.93
2023-01-25T18:58:50.040Z,13.33
2023-01-25T19:01:24.668Z,13.30
2023-01-25T19:03:52.315Z,14.03
2023-01-25T19:06:20.228Z,14.30
2023-01-25T19:08:53.156Z,14.00
2023-01-25T19:11:24.016Z,13.73
2023-01-25T19:13:51.268Z,13.40
2023-01-25T19:16:26.249Z,14.23
2023-01-25T19:18:54.925Z,14.53
2023-01-25T19:21:25.643Z,15.47
2023-01-25T19:23:55.414Z,16.03
2023-01-25T19:26:25.171Z,15.10
2023-01-25T19:28:53.470Z,15.90
2023-01-25T19:31:23.261Z,15.27
2023-01-25T19:33:56.912Z,15.37
2023-01-25T19:36:24.283Z,15.27
2023-01-25T19:38:57.393Z,17.43
2023-01-25T19:41:28.521Z,15.60
2023-01-25T19:43:58.140Z,14.93
2023-01-25T19:46:30.065Z,16.83
2023-01-25T19:48:59.017Z,14.87
2023-01-25T19:51:35.313Z,16.53
2023-01-25T19:54:16.888Z,16.27
2023-01-25T19:56:48.476Z,16.90
2023-01-25T19:59:25.698Z,16.13
2023-01-25T20:01:53.109Z,16.63
2023-01-25T20:04:22.718Z,15.73
2023-01-25T20:06:50.836Z,16.20
2023-01-25T20:09:20.154Z,18.00
2023-01-25T20:11:47.523Z,16.07
2023-01-25T20:14:15.688Z,19.37
2023-01-25T20:16:43.218Z,18.87
2023-01-25T20:19:12.546Z,16.63
2023-01-25T20:21:39.958Z,16.50
2023-01-25T20:24:09.733Z,19.93
2023-01-25T20:26:40.228Z,19.33
2023-01-25T20:29:08.563Z,16.77
2023-01-25T20:31:45.298Z,20.20
2023-01-25T20:34:20.067Z,20.70
2023-01-25T20:36:48.641Z,20.63
2023-01-25T20:39:19.411Z,21.83
2023-01-25T20:41:47.535Z,21.97
2023-01-25T20:44:17.890Z,22.47
2023-01-25T20:46:45.253Z,21.60
2023-01-25T20:49:18.219Z,23.23
2023-01-25T20:51:46.245Z,22.23
2023-01-25T20:54:13.898Z,20.50
2023-01-25T20:56:41.088Z,19.47
2023-01-25T20:59:10.818Z,21.50
2023-01-25T21:01:38.023Z,19.60
2023-01-25T21:04:07.965Z,18.83
2023-01-25T21:06:35.857Z,19.83
2023-01-25T21:09:04.143Z,22.50
2023-01-25T21:11:31.676Z,21.90
2023-01-25T21:13:59.566Z,21.37
2023-01-25T21:16:27.220Z,23.83
2023-01-25T21:18:57.986Z,23.17
2023-01-25T21:21:31.160Z,20.40
2023-01-25T21:24:00.201Z,21.17
2023-01-25T21:26:30.422Z,21.57
2023-01-25T21:29:00.037Z,22.07
2023-01-25T21:31:38.760Z,20.97
2023-01-25T21:34:06.689Z,22.60
2023-01-25T21:36:33.797Z,23.00
2023-01-25T21:39:01.128Z,23.77
2023-01-25T21:41:31.141Z,21.60
2023-01-25T21:44:18.638Z,23.80
2023-01-25T21:47:12.542Z,23.00
2023-01-25T21:49:51.992Z,19.50
2023-01-25T21:52:19.084Z,24.13
2023-01-25T21:54:46.313Z,24.13
2023-01-25T21:57:13.514Z,23.17
2023-01-25T21:59:40.985Z,23.93
2023-01-25T22:02:14.488Z,23.53
2023-01-25T22:04:41.701Z,22.50
2023-01-25T22:07:09.935Z,24.43
2023-01-25T22:09:37.174Z,24.70
2023-01-25T22:12:04.436Z,22.73
2023-01-25T22:14:31.528Z,21.77
2023-01-25T22:16:58.669Z,18.27
2023-01-25T22:19:25.934Z,21.23
2023-01-25T22:21:53.065Z,21.73
2023-01-25T22:24:20.178Z,22.73
2023-01-25T22:27:08.281Z,19.37
2023-01-25T22:29:35.441Z,20.17
2023-01-25T22:32:03.035Z,21.60
2023-01-25T22:34:30.171Z,20.93
2023-01-25T22:36:57.270Z,19.07
2023-01-25T22:39:24.338Z,17.03
2023-01-25T22:41:52.732Z,17.33
2023-01-25T22:44:19.977Z,18.10
2023-01-25T22:46:48.708Z,16.23
2023-01-25T22:49:15.820Z,17.23
2023-01-25T22:51:42.993Z,17.87
2023-01-25T22:54:10.058Z,16.73
2023-01-25T22:56:37.189Z,19.43
2023-01-25T22:59:06.524Z,18.00
2023-01-25T23:01:34.957Z,17.87
2023-01-25T23:04:02.497Z,18.67
2023-01-25T23:06:34.181Z,19.60
2023-01-25T23:09:04.695Z,20.13
2023-01-25T23:11:37.029Z,20.30
2023-01-25T23:14:29.253Z,19.20
2023-01-25T23:17:16.979Z,17.47
2023-01-25T23:19:44.078Z,16.00
2023-01-25T23:22:11.329Z,16.37
2023-01-25T23:24:38.529Z,15.83
2023-01-25T23:27:05.605Z,15.03
2023-01-25T23:29:33.291Z,13.53
2023-01-25T23:32:00.443Z,14.73
2023-01-25T23:34:27.708Z,14.43
2023-01-25T23:36:54.810Z,16.07
2023-01-25T23:39:23.599Z,16.60
2023-01-25T23:41:52.369Z,17.33
2023-01-25T23:44:19.510Z,17.57
2023-01-25T23:46:46.919Z,17.33
2023-01-25T23:49:14.256Z,15.70
2023-01-25T23:51:41.336Z,18.27
2023-01-25T23:54:08.564Z,18.63
2023-01-25T23:56:35.687Z,16.93
2023-01-25T23:59:02.871Z,14.57
